This is the latest recevied weather packets stored in our database for station/object XE1GMR. If no packets are shown the sender has not sent any weather packets the latest 1 day(s).
| Time | Temp. | Humidity | Pressure | Rain* | Wind** | Luminosity | Snow |
|---|---|---|---|---|---|---|---|
| 1778100177 | 31.11° C | 33% | 1119.4 hPa | 0 mm | - | 617 W/m² | - |
| 1778098358 | 31.11° C | 34% | 1119.8 hPa | 0 mm | - | 695 W/m² | - |
| 1778097448 | 31.67° C | 34% | 1120.3 hPa | 0 mm | - | 718 W/m² | - |
| 1778094719 | 29.44° C | 40% | 1121.1 hPa | 0 mm | - | 736 W/m² | - |
| 1778094113 | 30° C | 39% | 1121.2 hPa | 0 mm | - | 757 W/m² | - |
| 1778093204 | 30.56° C | 37% | 1121.6 hPa | 0 mm | - | 753 W/m² | - |
| 1778091688 | 28.89° C | 43% | 1121.7 hPa | 0 mm | - | 831 W/m² | - |
| 1778091386 | 30.56° C | 39% | 1121.8 hPa | 0 mm | - | 808 W/m² | - |
| 1778090476 | 29.44° C | 44% | 1122 hPa | 0 mm | - | 791 W/m² | - |
| 1778088658 | 28.89° C | 45% | 1122.5 hPa | 0 mm | - | 462 W/m² | - |
| 1778087749 | 27.22° C | 48% | 1122.5 hPa | 0 mm | - | 819 W/m² | - |
| 1778085927 | 27.22° C | 46% | 1122.8 hPa | 0 mm | - | 793 W/m² | - |
| 1778085321 | 26.67° C | 48% | 1123.1 hPa | 0 mm | - | 796 W/m² | - |
| 1778084713 | 26.67° C | 46% | 1122.9 hPa | 0 mm | - | 816 W/m² | - |
| 1778081480 | 24.44° C | 52% | 1123 hPa | 0 mm | - | 714 W/m² | - |
| 1778081177 | 24.44° C | 52% | 1123.1 hPa | 0 mm | - | 689 W/m² | - |
| 1778080573 | 23.33° C | 54% | 1122.9 hPa | 0 mm | - | 621 W/m² | - |
| 1778079057 | 23.89° C | 53% | 1122.8 hPa | 0 mm | - | 544 W/m² | - |
| 1778077847 | 22.78° C | 51% | 1122.9 hPa | 0 mm | - | 432 W/m² | - |
| 1778076638 | 21.11° C | 56% | 1123 hPa | 0 mm | - | 281 W/m² | - |
| 1778075425 | 20° C | 59% | 1123 hPa | 0 mm | - | 227 W/m² | - |
| 1778074515 | 19.44° C | 60% | 1123 hPa | 0 mm | - | 167 W/m² | - |
| 1778074212 | 18.33° C | 62% | 1122.9 hPa | 0 mm | - | 150 W/m² | - |
| 1778073909 | 17.78° C | 64% | 1122.8 hPa | 0 mm | - | 148 W/m² | - |
| 1778073000 | 16.67° C | 66% | 1122.7 hPa | 0 mm | - | 102 W/m² | - |
* Rain latest hour (hover to see other rain measurements)
** Current wind speed in m/s (hover to see current wind gust speed)